Terminal Aerodrome Forecast
Issued by NWS Atlanta, GA

Home | Current Version | Previous Version | Text Only | Print | Product List | Glossary On
Versions: 1 2 3 4 5 6 7 8 9 10 11 12 13 14 15 16 17 18 19 20 21 22 23 24 25 26 27 28 29 30 31 32 33 34 35 36 37 38 39 40
000
FTUS42 KFFC 260530
TAFAHN
TAF
KAHN 260530Z 2606/2706 00000KT P6SM FEW070
      TEMPO 2609/2613 5SM BR
     FM261500 08005KT P6SM SCT045 PROB30 2619/2623 5SM TSRA BR
      BKN035CB
     FM270100 07003KT P6SM SCT250=

USA.gov is the U.S. government's official web portal to all federal, state and local government web resources and services.